LEWISTON (LEW)

Elevation: 1870' · TRINITY R basin · Operator: US Bureau of Reclamation

Provisional data, subject to change.
Query executed Tuesday at 7:47:38   clock

Select a sensor type for a plot of data.
Note: Reservoir Flows are daily averages.

Earlier

Date RES ELE    STORAGE    RES CHG    OUTFLOW    INFLOW    EVAP    RIV REL    SPILL    DIS PWR   
 FEET   AF   AF   CFS   CFS   CFS   CFS   CFS   CFS  
01/11/2016 1901.56 14330 277 633 774 1 305 0 0
01/12/2016 1901.03 13933 -397 594 394 0 305 0 0
01/13/2016 1901.07 13963 30 610 625 0 305 0 0
01/14/2016 1901.00 13911 -52 595 570 1 305 0 0
01/15/2016 1901.56 14330 419 306 517 0 305 0 0
01/16/2016 1901.50 14285 -45 305 282 0 305 0 0
01/17/2016 1901.26 14105 -180 473 382 0 305 0 0
01/18/2016 1901.48 14270 165 306 389 0 305 0 0
01/19/2016 1901.47 14263 -7 306 302 0 305 0 0
01/20/2016 1901.00 13911 -352 305 128 0 305 0 0
01/21/2016 1900.47 13521 -390 306 109 0 305 0 0
01/22/2016 1900.87 13815 294 306 455 1 305 0 0
01/23/2016 1900.75 13727 -88 306 262 0 305 0 0
01/24/2016 1900.97 13889 162 306 389 1 305 0 0
01/25/2016 1901.24 14091 202 306 409 1 305 0 0
01/26/2016 1901.76 14479 388 306 502 0 305 0 0
01/27/2016 1901.76 14479 0 306 306 0 305 0 0
01/28/2016 1901.25 14098 -381 373 181 0 305 0 0
01/29/2016 1901.34 14165 67 698 732 0 305 0 0
01/30/2016 1901.58 14345 180 306 398 1 305 0 0
01/31/2016 1901.64 14390 45 306 331 2 305 0 0
02/01/2016 1901.61 14367 -23 307 295 0 305 0 0
02/02/2016 1901.64 14390 23 306 318 0 305 0 0
02/03/2016 1901.34 14165 -225 319 206 0 305 0 0
02/04/2016 1901.16 14031 -134 306 238 0 305 0 0
02/05/2016 1901.20 14061 30 306 322 1 305 0 0
02/06/2016 1901.06 13956 -105 306 253 0 305 0 0
02/07/2016 1900.90 13837 -119 306 248 2 305 0 0
02/08/2016 1900.90 13837 0 306 307 1 305 0 0
02/09/2016 -- -- -- -- -- -- -- -- --

Later | Latest

Warning! This data is preliminary and subject to revision.

Show LEW Map | Plot LEW Data | 1 Month LEW Data | Real-Time LEW Data | LEW Info